Time;durP1;ratioP1;P1;durP2;ratioP2;P2;SDS_P1;SDS_P2;PMS_P1;PMS_P2;Temp;Humidity;BMP_temperature;BMP_pressure;BME280_temperature;BME280_humidity;BME280_pressure;Samples;Min_cycle;Max_cycle;Signal;HPM_P1;HPM_P2
2022/01/17 00:01:28;;;;;;;2.80;2.60;;;4.70;99.90;;;;;;5066044;28;20272;-67
2022/01/17 00:03:56;;;;;;;2.88;2.60;;;4.70;99.90;;;;;;5062545;28;20291;-67
2022/01/17 00:06:24;;;;;;;2.55;2.45;;;4.70;99.90;;;;;;5072886;28;20283;-67
2022/01/17 00:08:51;;;;;;;2.80;2.70;;;4.80;99.90;;;;;;5070376;28;20203;-67
2022/01/17 00:11:19;;;;;;;3.05;2.85;;;4.70;99.90;;;;;;5066195;28;20303;-67
2022/01/17 00:13:49;;;;;;;2.38;2.28;;;4.70;99.90;;;;;;5063166;28;20226;-67
2022/01/17 00:16:21;;;;;;;2.25;2.15;;;4.70;99.90;;;;;;5063730;28;20202;-67
2022/01/17 00:21:43;;;;;;;2.70;2.50;;;4.60;99.90;;;;;;5024943;28;20253;-67
2022/01/17 00:24:10;;;;;;;2.63;2.53;;;4.60;99.90;;;;;;5069916;28;20584;-67
2022/01/17 00:26:37;;;;;;;2.45;2.35;;;4.60;99.90;;;;;;5064385;28;20309;-66
2022/01/17 00:29:04;;;;;;;2.30;2.20;;;4.60;99.90;;;;;;5060653;28;20255;-67
2022/01/17 00:31:31;;;;;;;2.40;2.30;;;4.50;99.90;;;;;;5058390;28;20709;-67
2022/01/17 00:33:58;;;;;;;2.33;2.22;;;4.60;99.90;;;;;;5060912;28;20214;-67
2022/01/17 00:36:25;;;;;;;1.95;1.90;;;4.60;99.90;;;;;;5059355;28;20230;-69
2022/01/17 00:38:53;;;;;;;1.70;1.70;;;4.60;99.90;;;;;;5062615;28;20199;-67
2022/01/17 00:41:20;;;;;;;2.15;2.05;;;4.60;99.90;;;;;;5057892;28;20896;-67
2022/01/17 00:43:47;;;;;;;2.30;2.20;;;4.70;99.90;;;;;;5063971;28;20240;-67
2022/01/17 00:46:15;;;;;;;2.70;2.60;;;4.70;99.90;;;;;;5060644;28;20237;-67
2022/01/17 00:48:42;;;;;;;2.20;2.10;;;4.70;99.90;;;;;;5061350;28;20194;-67
2022/01/17 00:51:09;;;;;;;2.60;2.50;;;4.70;99.90;;;;;;5061176;28;21015;-68
2022/01/17 00:53:37;;;;;;;2.35;2.25;;;4.70;99.90;;;;;;5064818;28;20229;-67
2022/01/17 00:56:06;;;;;;;2.22;2.13;;;4.60;99.90;;;;;;5064599;28;20198;-67
2022/01/17 00:58:33;;;;;;;2.20;2.10;;;4.50;99.90;;;;;;5059922;28;20639;-67
2022/01/17 01:01:00;;;;;;;2.60;2.50;;;4.50;99.90;;;;;;5063811;28;20198;-67
2022/01/17 01:03:27;;;;;;;2.10;2.00;;;4.50;99.90;;;;;;5059635;28;20223;-67
2022/01/17 01:05:54;;;;;;;2.50;2.40;;;4.50;99.90;;;;;;5065744;28;20230;-67
2022/01/17 01:08:21;;;;;;;2.20;2.10;;;4.60;99.90;;;;;;5064530;28;20302;-67
2022/01/17 01:10:48;;;;;;;2.42;2.33;;;4.70;99.90;;;;;;5058537;28;20264;-67
2022/01/17 01:13:21;;;;;;;2.67;2.58;;;4.80;99.90;;;;;;5060537;28;20226;-67
2022/01/17 01:16:09;;;;;;;2.40;2.30;;;4.90;99.90;;;;;;5064497;28;20269;-68
2022/01/17 01:18:49;;;;;;;1.88;1.77;;;5.00;99.90;;;;;;5060489;28;20242;-68
2022/01/17 01:21:43;;;;;;;1.90;1.80;;;4.90;99.90;;;;;;5062562;28;20207;-67
2022/01/17 01:29:47;;;;;;;2.63;2.53;;;4.90;99.90;;;;;;5063873;28;20281;-67
2022/01/17 01:32:19;;;;;;;2.60;2.50;;;5.00;99.90;;;;;;5059389;28;20244;-68
2022/01/17 01:34:50;;;;;;;2.47;2.38;;;5.00;99.90;;;;;;5058435;28;20205;-67
2022/01/17 01:37:17;;;;;;;2.33;2.22;;;5.00;99.90;;;;;;5061174;28;20284;-67
2022/01/17 01:39:46;;;;;;;2.33;2.22;;;5.00;99.90;;;;;;5066044;28;20198;-68
2022/01/17 01:42:16;;;;;;;2.42;2.33;;;4.90;99.90;;;;;;5067479;28;20222;-67
2022/01/17 01:44:45;;;;;;;2.22;2.13;;;5.00;99.90;;;;;;5062547;28;20681;-67
2022/01/17 01:47:13;;;;;;;2.33;2.22;;;4.90;99.90;;;;;;5069482;28;20275;-66
2022/01/17 01:49:40;;;;;;;2.22;2.13;;;4.90;99.90;;;;;;5059445;28;20680;-67
2022/01/17 01:52:08;;;;;;;2.65;2.55;;;4.80;99.90;;;;;;5068413;28;20225;-67
2022/01/17 01:54:35;;;;;;;2.45;2.30;;;4.80;99.90;;;;;;5062006;28;20194;-67
2022/01/17 01:57:02;;;;;;;2.63;2.53;;;4.70;99.90;;;;;;5064088;28;20700;-67
2022/01/17 01:59:29;;;;;;;2.42;2.33;;;4.60;99.90;;;;;;5067765;28;20235;-67
2022/01/17 02:01:58;;;;;;;2.35;2.25;;;4.60;99.90;;;;;;5065726;28;20221;-67
2022/01/17 02:04:26;;;;;;;2.40;2.30;;;4.60;99.90;;;;;;5083978;22;20229;-74
2022/01/17 02:06:53;;;;;;;2.90;2.80;;;4.60;99.90;;;;;;5055898;28;20218;-74
2022/01/17 02:09:23;;;;;;;2.17;2.08;;;4.60;99.90;;;;;;5060894;28;20592;-74
2022/01/17 02:11:51;;;;;;;2.55;2.45;;;4.60;99.90;;;;;;5063235;28;20232;-74
2022/01/17 02:14:18;;;;;;;2.20;2.10;;;4.70;99.90;;;;;;5058950;28;20226;-74
2022/01/17 02:16:47;;;;;;;2.80;2.70;;;4.70;99.90;;;;;;5047475;28;20703;-74
2022/01/17 02:19:19;;;;;;;2.67;2.58;;;4.80;99.90;;;;;;5045548;28;20194;-73
2022/01/17 02:21:49;;;;;;;2.30;2.20;;;4.90;99.90;;;;;;5045095;28;20249;-74
2022/01/17 02:24:18;;;;;;;3.03;2.83;;;5.00;99.90;;;;;;5045034;28;20243;-74
2022/01/17 02:26:46;;;;;;;2.90;2.75;;;5.00;99.90;;;;;;5044465;28;20772;-74
2022/01/17 02:29:13;;;;;;;2.40;2.30;;;4.90;99.90;;;;;;5044015;28;20323;-74
2022/01/17 02:31:40;;;;;;;2.70;2.60;;;4.90;99.90;;;;;;5044204;28;20211;-74
2022/01/17 02:34:07;;;;;;;2.13;2.03;;;4.90;99.90;;;;;;5044272;28;20222;-74
2022/01/17 02:36:35;;;;;;;2.55;2.45;;;4.80;99.90;;;;;;5043272;28;20712;-73
2022/01/17 02:39:04;;;;;;;2.53;2.40;;;4.90;99.90;;;;;;5055630;28;20198;-74
2022/01/17 02:41:32;;;;;;;2.80;2.60;;;4.90;99.90;;;;;;5042007;28;20706;-74
2022/01/17 02:44:01;;;;;;;3.03;2.80;;;4.90;99.90;;;;;;5047377;28;20577;-74
2022/01/17 02:46:28;;;;;;;3.03;2.40;;;5.10;99.90;;;;;;5046992;28;20219;-74
2022/01/17 02:48:56;;;;;;;3.05;2.85;;;5.30;99.90;;;;;;5044247;28;20218;-74
2022/01/17 02:51:23;;;;;;;2.63;2.50;;;5.20;99.90;;;;;;5041062;28;20218;-74
2022/01/17 02:53:51;;;;;;;2.40;2.30;;;5.10;99.90;;;;;;5045425;28;20280;-74
2022/01/17 02:56:20;;;;;;;2.38;2.28;;;5.00;99.90;;;;;;5043701;28;20199;-74
2022/01/17 02:58:48;;;;;;;3.28;2.30;;;4.90;99.90;;;;;;5053637;28;20732;-74
2022/01/17 03:01:17;;;;;;;2.97;2.78;;;5.00;99.90;;;;;;5047300;28;20198;-74
2022/01/17 03:03:44;;;;;;;2.70;2.50;;;5.10;99.90;;;;;;5043213;28;20214;-74
2022/01/17 03:06:12;;;;;;;2.42;2.33;;;5.00;99.90;;;;;;5046087;28;20265;-74
2022/01/17 03:08:41;;;;;;;2.20;2.10;;;5.00;99.90;;;;;;5059259;28;20226;-74
2022/01/17 03:11:11;;;;;;;2.28;2.17;;;4.90;99.90;;;;;;5048028;28;20669;-74
2022/01/17 03:13:40;;;;;;;3.03;2.83;;;4.70;99.90;;;;;;5054473;28;20226;-74
2022/01/17 03:16:11;;;;;;;2.60;2.50;;;4.70;99.90;;;;;;5048647;28;20202;-74
2022/01/17 03:18:41;;;;;;;2.55;2.45;;;4.60;99.90;;;;;;5047958;28;20727;-74
2022/01/17 03:21:09;;;;;;;2.90;2.80;;;4.60;99.90;;;;;;5051669;28;21044;-73
2022/01/17 03:23:37;;;;;;;2.33;2.22;;;4.60;99.90;;;;;;5047258;28;20215;-74
2022/01/17 03:26:05;;;;;;;2.50;2.35;;;4.60;99.90;;;;;;5050388;28;20223;-74
2022/01/17 03:28:33;;;;;;;2.45;2.35;;;4.70;99.90;;;;;;5045850;28;20892;-74
2022/01/17 03:31:01;;;;;;;2.75;2.65;;;4.60;99.90;;;;;;5048075;28;20195;-74
2022/01/17 03:33:29;;;;;;;2.75;2.65;;;4.50;99.90;;;;;;5047255;28;20947;-74
2022/01/17 03:35:56;;;;;;;2.80;2.60;;;4.40;99.90;;;;;;5042670;28;20723;-74
2022/01/17 03:38:26;;;;;;;2.60;2.50;;;4.30;99.90;;;;;;5045376;28;20227;-74
2022/01/17 03:40:53;;;;;;;2.40;2.30;;;4.30;99.90;;;;;;5044983;28;20213;-75
2022/01/17 03:43:21;;;;;;;2.53;2.42;;;4.30;99.90;;;;;;5047031;28;20608;-74
2022/01/17 03:45:49;;;;;;;2.70;2.60;;;4.30;99.90;;;;;;5040861;28;20769;-74
2022/01/17 03:48:18;;;;;;;2.30;2.20;;;4.30;99.90;;;;;;5048965;28;20701;-75
2022/01/17 03:50:45;;;;;;;2.78;2.67;;;4.30;99.90;;;;;;5046052;28;20199;-74
2022/01/17 03:53:12;;;;;;;2.60;2.50;;;4.20;99.90;;;;;;5039206;28;20285;-74
2022/01/17 03:55:39;;;;;;;2.55;2.40;;;4.20;99.90;;;;;;5046935;28;20223;-74
2022/01/17 03:58:07;;;;;;;2.70;2.50;;;4.20;99.90;;;;;;5046567;28;20219;-74
2022/01/17 04:00:37;;;;;;;2.90;2.80;;;4.10;99.90;;;;;;5044821;28;20203;-74
2022/01/17 04:03:04;;;;;;;2.47;2.38;;;4.20;99.90;;;;;;5052351;28;20609;-74
2022/01/17 04:05:33;;;;;;;2.45;2.35;;;4.30;99.90;;;;;;5046137;28;20764;-72
2022/01/17 04:08:00;;;;;;;2.58;2.47;;;4.30;99.90;;;;;;5048018;28;20223;-74
2022/01/17 04:10:28;;;;;;;2.80;2.70;;;4.30;99.90;;;;;;5044325;28;20286;-75
2022/01/17 04:13:01;;;;;;;2.80;2.70;;;4.20;99.90;;;;;;5051816;28;20227;-74
2022/01/17 04:15:28;;;;;;;2.40;2.30;;;4.20;99.90;;;;;;5043862;28;20225;-74
2022/01/17 04:17:55;;;;;;;2.60;2.50;;;4.10;99.90;;;;;;5047187;28;20211;-74
2022/01/17 04:20:27;;;;;;;2.63;2.53;;;4.20;99.90;;;;;;5047729;28;20610;-74
2022/01/17 04:22:56;;;;;;;2.35;2.25;;;4.20;99.90;;;;;;5045166;28;20266;-74
2022/01/17 04:25:25;;;;;;;2.75;2.65;;;4.30;99.90;;;;;;5046216;28;20708;-74
2022/01/17 04:27:53;;;;;;;2.70;2.60;;;4.40;99.90;;;;;;5056510;28;20236;-75
2022/01/17 04:30:21;;;;;;;2.80;2.55;;;4.40;99.90;;;;;;5070534;28;20209;-74
2022/01/17 04:32:48;;;;;;;2.72;2.60;;;4.50;99.90;;;;;;5047558;28;20631;-74
2022/01/17 04:35:20;;;;;;;2.58;2.42;;;4.50;99.90;;;;;;5045666;28;20233;-74
2022/01/17 04:37:49;;;;;;;3.35;3.15;;;4.40;99.90;;;;;;5044396;28;20219;-74
2022/01/17 04:40:18;;;;;;;2.90;2.80;;;4.40;99.90;;;;;;5047628;28;20233;-74
2022/01/17 04:42:47;;;;;;;2.35;2.25;;;4.40;99.90;;;;;;5048639;28;20223;-74
2022/01/17 04:45:17;;;;;;;2.80;2.70;;;4.40;99.90;;;;;;5044764;28;20210;-74
2022/01/17 04:47:47;;;;;;;3.05;2.85;;;4.40;99.90;;;;;;5046281;28;20225;-74
2022/01/17 04:50:18;;;;;;;2.78;2.67;;;4.50;99.90;;;;;;5048989;28;20218;-74
2022/01/17 04:52:46;;;;;;;2.60;2.50;;;4.60;99.90;;;;;;5041190;28;20230;-74
2022/01/17 04:55:15;;;;;;;2.60;2.50;;;4.60;99.90;;;;;;5044368;28;20767;-74
2022/01/17 04:57:44;;;;;;;2.40;2.30;;;4.60;99.90;;;;;;5046531;28;20218;-73
2022/01/17 05:00:14;;;;;;;2.50;2.40;;;4.50;99.90;;;;;;5050084;28;20191;-74
2022/01/17 05:02:42;;;;;;;2.60;2.50;;;4.50;99.90;;;;;;5042279;28;20223;-74
2022/01/17 05:05:10;;;;;;;3.17;2.97;;;4.50;99.90;;;;;;5052183;28;20645;-74
2022/01/17 05:07:38;;;;;;;2.67;2.58;;;4.50;99.90;;;;;;5050460;28;20229;-74
2022/01/17 05:10:07;;;;;;;2.97;2.80;;;4.50;99.90;;;;;;5046823;28;20198;-73
2022/01/17 05:12:34;;;;;;;2.53;2.42;;;4.40;99.90;;;;;;5042960;28;20921;-73
2022/01/17 05:15:03;;;;;;;3.00;2.80;;;4.50;99.90;;;;;;5047814;28;20229;-74
2022/01/17 05:17:55;;;;;;;3.05;2.88;;;4.40;99.90;;;;;;5041644;28;20226;-74
2022/01/17 05:20:22;;;;;;;2.50;2.40;;;4.40;99.90;;;;;;5046982;28;20268;-74
2022/01/17 05:22:49;;;;;;;2.60;2.50;;;4.40;99.90;;;;;;5045243;28;20283;-74
2022/01/17 05:25:16;;;;;;;2.55;2.33;;;4.40;99.90;;;;;;5049618;28;20214;-74
2022/01/17 05:27:43;;;;;;;2.53;2.42;;;4.50;99.90;;;;;;5050903;28;20692;-74
2022/01/17 05:30:14;;;;;;;2.70;2.60;;;4.50;99.90;;;;;;5056508;28;20256;-74
2022/01/17 05:32:41;;;;;;;2.42;2.33;;;4.60;99.90;;;;;;5047883;28;20218;-74
2022/01/17 05:35:10;;;;;;;2.33;2.22;;;4.60;99.90;;;;;;5051164;28;20230;-74
2022/01/17 05:37:38;;;;;;;2.70;2.60;;;4.60;99.90;;;;;;5049615;28;20227;-74
2022/01/17 05:40:06;;;;;;;2.15;2.05;;;4.60;99.90;;;;;;5052589;28;20199;-74
2022/01/17 05:42:33;;;;;;;2.55;2.45;;;4.70;99.90;;;;;;5052360;28;20638;-74
2022/01/17 05:45:01;;;;;;;3.00;2.80;;;4.70;99.90;;;;;;5048123;28;20219;-74
2022/01/17 05:47:29;;;;;;;3.20;3.08;;;4.80;99.90;;;;;;5055182;28;20288;-74
2022/01/17 05:49:57;;;;;;;2.90;2.80;;;4.90;99.90;;;;;;5051760;28;20198;-74
2022/01/17 05:52:24;;;;;;;2.20;2.10;;;5.10;99.70;;;;;;5052268;28;20199;-74
2022/01/17 05:54:52;;;;;;;2.88;2.78;;;5.10;99.50;;;;;;5046999;28;20234;-74
2022/01/17 05:57:19;;;;;;;2.50;2.40;;;5.20;99.70;;;;;;5054372;28;20195;-74
2022/01/17 05:59:46;;;;;;;2.28;2.17;;;5.10;99.70;;;;;;5051463;28;20282;-74
2022/01/17 06:02:14;;;;;;;2.38;2.28;;;5.20;99.40;;;;;;5049558;28;20195;-74
2022/01/17 06:04:42;;;;;;;1.95;1.85;;;5.20;99.70;;;;;;5046272;28;20301;-74
2022/01/17 06:07:09;;;;;;;2.20;2.10;;;5.00;99.90;;;;;;5050867;28;20222;-74
2022/01/17 06:09:36;;;;;;;2.40;2.30;;;4.90;99.90;;;;;;5046844;28;20574;-74
2022/01/17 06:12:05;;;;;;;2.53;2.42;;;4.70;99.90;;;;;;5047550;28;20568;-74
2022/01/17 06:14:32;;;;;;;2.97;2.80;;;4.60;99.90;;;;;;5054168;28;20226;-74
2022/01/17 06:16:59;;;;;;;2.40;2.30;;;4.50;99.90;;;;;;5051904;28;20685;-75
2022/01/17 06:19:26;;;;;;;2.30;2.20;;;4.50;99.90;;;;;;5043959;28;20246;-74
2022/01/17 06:21:54;;;;;;;2.40;2.30;;;4.60;99.90;;;;;;5051424;28;20186;-74
2022/01/17 06:24:23;;;;;;;2.72;2.63;;;4.70;99.90;;;;;;5048369;28;20219;-74
2022/01/17 06:26:51;;;;;;;2.55;2.45;;;4.80;99.90;;;;;;5054692;28;20199;-74
2022/01/17 06:29:18;;;;;;;2.67;2.58;;;4.70;99.90;;;;;;5050784;28;20316;-74
2022/01/17 06:31:45;;;;;;;3.05;2.85;;;4.50;99.90;;;;;;5046026;28;20743;-74
2022/01/17 06:34:13;;;;;;;2.75;2.65;;;4.40;99.90;;;;;;5054844;28;20227;-74
2022/01/17 06:36:42;;;;;;;3.20;3.00;;;4.20;99.90;;;;;;5041927;28;20204;-75
2022/01/17 06:39:12;;;;;;;3.10;2.85;;;4.10;99.90;;;;;;5044379;28;20223;-75
2022/01/17 06:41:39;;;;;;;3.30;3.08;;;4.10;99.90;;;;;;5051629;28;20257;-74
2022/01/17 06:44:07;;;;;;;3.03;2.80;;;4.10;99.90;;;;;;5054189;28;20214;-75
2022/01/17 06:46:34;;;;;;;2.67;2.55;;;4.20;99.90;;;;;;5054067;28;20223;-74
2022/01/17 06:49:01;;;;;;;3.42;3.22;;;4.20;99.90;;;;;;5051685;28;20219;-75
2022/01/17 06:51:28;;;;;;;3.65;3.45;;;4.10;99.90;;;;;;5049674;28;20276;-74
2022/01/17 06:53:55;;;;;;;2.92;2.58;;;4.10;99.90;;;;;;5044970;28;20231;-74
2022/01/17 06:56:24;;;;;;;2.70;2.50;;;4.10;99.90;;;;;;5049428;28;20202;-75
2022/01/17 06:58:51;;;;;;;4.13;2.63;;;4.10;99.90;;;;;;5050094;28;20237;-75
2022/01/17 07:01:20;;;;;;;4.38;2.88;;;4.10;99.90;;;;;;5048961;28;20199;-74
2022/01/17 07:03:48;;;;;;;3.30;3.10;;;4.20;99.90;;;;;;5052523;28;20223;-74
2022/01/17 07:06:15;;;;;;;3.42;3.22;;;4.20;99.90;;;;;;5070476;28;20217;-75
2022/01/17 07:08:43;;;;;;;2.90;2.70;;;4.20;99.90;;;;;;5072331;28;20285;-74
2022/01/17 07:11:10;;;;;;;2.92;2.78;;;4.30;99.90;;;;;;5043464;28;20568;-75
2022/01/17 07:13:38;;;;;;;3.30;3.10;;;4.30;99.90;;;;;;5047066;28;20227;-74
2022/01/17 07:16:05;;;;;;;3.20;3.05;;;4.40;99.90;;;;;;5043985;28;20256;-73
2022/01/17 07:18:33;;;;;;;3.08;2.88;;;4.40;99.90;;;;;;5041778;28;20805;-74
2022/01/17 07:21:00;;;;;;;3.05;2.85;;;4.40;99.90;;;;;;5043686;28;20203;-74
2022/01/17 07:23:27;;;;;;;3.40;3.20;;;4.40;99.90;;;;;;5041967;28;20245;-73
2022/01/17 07:25:54;;;;;;;3.22;3.03;;;4.30;99.90;;;;;;5043627;28;20222;-74
2022/01/17 07:28:21;;;;;;;3.50;3.30;;;4.30;99.90;;;;;;5034933;28;21731;-73
2022/01/17 07:30:50;;;;;;;3.28;3.08;;;4.30;99.90;;;;;;5038639;28;20198;-73
2022/01/17 07:33:18;;;;;;;3.60;3.40;;;4.30;99.90;;;;;;5048655;28;20268;-74
2022/01/17 07:35:45;;;;;;;3.90;3.10;;;4.30;99.90;;;;;;5048043;28;20228;-72
2022/01/17 07:38:13;;;;;;;3.35;3.15;;;4.40;99.90;;;;;;5041914;28;20222;-74
2022/01/17 07:40:42;;;;;;;3.30;3.10;;;4.40;99.90;;;;;;5042606;28;20199;-75
2022/01/17 07:43:10;;;;;;;3.05;2.92;;;4.60;99.90;;;;;;5044442;28;20681;-72
2022/01/17 07:45:44;;;;;;;3.15;2.97;;;4.80;99.90;;;;;;5041248;28;20237;-73
2022/01/17 07:48:33;;;;;;;2.80;2.70;;;4.80;99.90;;;;;;5038694;28;20226;-73
2022/01/17 07:51:01;;;;;;;4.40;2.55;;;4.70;99.90;;;;;;5037712;28;20207;-72
2022/01/17 07:53:28;;;;;;;2.90;2.70;;;4.60;99.90;;;;;;5042289;28;20489;-73
2022/01/17 07:55:55;;;;;;;3.35;3.15;;;4.60;99.90;;;;;;5041079;28;20597;-73
2022/01/17 07:58:22;;;;;;;3.25;3.10;;;4.60;99.90;;;;;;5045804;28;20222;-73
2022/01/17 08:00:49;;;;;;;3.03;2.83;;;4.60;99.90;;;;;;5044261;28;20199;-72
2022/01/17 08:03:18;;;;;;;2.92;2.83;;;4.60;99.90;;;;;;5038244;28;20272;-71
2022/01/17 08:05:45;;;;;;;3.47;3.20;;;4.60;99.90;;;;;;5060301;22;20222;-68
2022/01/17 08:08:12;;;;;;;3.60;3.33;;;4.60;99.90;;;;;;5063616;28;20852;-68
2022/01/17 08:10:39;;;;;;;3.22;3.03;;;4.80;99.90;;;;;;5062477;28;20217;-68
2022/01/17 08:13:06;;;;;;;3.40;3.20;;;4.80;99.90;;;;;;5063581;28;20487;-68
2022/01/17 08:15:34;;;;;;;2.85;2.75;;;4.90;99.90;;;;;;5061539;28;20228;-68
2022/01/17 08:18:01;;;;;;;2.92;2.78;;;5.00;99.90;;;;;;5062841;28;20311;-68
2022/01/17 08:20:30;;;;;;;2.53;2.42;;;5.00;99.90;;;;;;5057549;28;20562;-68
2022/01/17 08:22:57;;;;;;;2.97;2.78;;;5.10;99.90;;;;;;5065551;28;20203;-68
2022/01/17 08:25:25;;;;;;;2.83;2.65;;;5.20;99.90;;;;;;5059584;28;20225;-68
2022/01/17 08:27:52;;;;;;;2.80;2.70;;;5.30;99.90;;;;;;5059143;28;20213;-68
2022/01/17 08:30:19;;;;;;;2.47;2.30;;;5.50;99.90;;;;;;5065015;28;20700;-68
2022/01/17 08:32:46;;;;;;;2.60;2.40;;;6.10;99.90;;;;;;5061168;28;20980;-68
2022/01/17 08:35:13;;;;;;;3.45;3.15;;;6.50;99.90;;;;;;5064202;28;20286;-69
2022/01/17 08:37:42;;;;;;;3.53;3.33;;;7.00;99.90;;;;;;5059912;28;20202;-68
2022/01/17 08:40:10;;;;;;;3.50;3.30;;;8.10;99.30;;;;;;5056371;28;20218;-68
2022/01/17 08:42:38;;;;;;;3.20;3.00;;;9.10;98.50;;;;;;5057900;28;20669;-70
2022/01/17 08:45:07;;;;;;;2.35;2.25;;;10.10;97.20;;;;;;5059991;28;20306;-69
2022/01/17 08:47:34;;;;;;;3.53;3.22;;;10.60;95.90;;;;;;5062244;28;20194;-70
2022/01/17 08:50:01;;;;;;;3.42;3.13;;;11.10;95.10;;;;;;5058812;28;20233;-68
2022/01/17 08:52:28;;;;;;;2.72;2.53;;;11.60;95.30;;;;;;5063381;28;20225;-71
2022/01/17 08:54:57;;;;;;;2.75;2.55;;;12.20;94.60;;;;;;5062865;28;20218;-70
2022/01/17 08:57:25;;;;;;;2.67;2.50;;;11.80;94.50;;;;;;5060773;28;20268;-70
2022/01/17 08:59:52;;;;;;;2.90;2.70;;;11.00;95.10;;;;;;5058331;28;20251;-69
2022/01/17 09:02:19;;;;;;;3.08;2.83;;;10.10;95.80;;;;;;5061568;28;20240;-68
2022/01/17 09:04:47;;;;;;;2.95;2.75;;;9.40;96.90;;;;;;5062907;28;20271;-69
2022/01/17 09:07:16;;;;;;;3.38;3.10;;;8.90;97.90;;;;;;5065648;28;20229;-71
2022/01/17 09:09:45;;;;;;;3.72;3.42;;;8.60;98.20;;;;;;5061681;28;20805;-69
2022/01/17 09:12:15;;;;;;;3.35;3.08;;;8.20;98.20;;;;;;5058453;28;20672;-71
2022/01/17 09:14:43;;;;;;;3.53;3.22;;;7.90;98.20;;;;;;5055719;28;20300;-70
2022/01/17 09:17:11;;;;;;;3.83;3.53;;;7.60;98.80;;;;;;5060816;28;20227;-70
2022/01/17 09:19:39;;;;;;;4.82;4.32;;;7.50;99.20;;;;;;5062235;28;20233;-70
2022/01/17 09:22:08;;;;;;;4.85;4.35;;;7.40;99.30;;;;;;5057554;28;20206;-70
2022/01/17 09:24:35;;;;;;;3.45;3.22;;;7.50;99.30;;;;;;5059914;28;20218;-71
2022/01/17 09:27:03;;;;;;;4.22;3.88;;;8.80;99.60;;;;;;5060968;28;20267;-74
2022/01/17 09:29:31;;;;;;;3.10;2.90;;;11.40;96.90;;;;;;5062980;28;20230;-68
2022/01/17 09:31:59;;;;;;;3.40;3.10;;;14.30;90.20;;;;;;5061870;28;20240;-70
2022/01/17 09:34:26;;;;;;;3.47;3.17;;;16.80;83.70;;;;;;5060925;28;20225;-71
2022/01/17 09:36:54;;;;;;;4.28;3.33;;;18.70;77.50;;;;;;5058816;28;20236;-71
2022/01/17 09:39:21;;;;;;;2.60;2.40;;;20.30;70.30;;;;;;5057252;28;20227;-70
2022/01/17 09:41:48;;;;;;;2.50;2.30;;;21.00;66.00;;;;;;5054496;28;20209;-72
2022/01/17 09:44:15;;;;;;;3.15;2.67;;;22.00;63.70;;;;;;5058669;28;20210;-70
2022/01/17 09:46:46;;;;;;;2.95;2.40;;;21.30;62.50;;;;;;5054378;28;20298;-71
2022/01/17 09:49:24;;;;;;;2.92;2.72;;;19.50;65.60;;;;;;5057441;28;20615;-71
2022/01/17 09:52:14;;;;;;;2.92;2.72;;;17.60;70.00;;;;;;5059387;28;20507;-70
2022/01/17 09:54:44;;;;;;;3.05;2.85;;;15.90;75.10;;;;;;5059443;28;20264;-71
2022/01/17 09:57:13;;;;;;;3.20;2.75;;;14.30;78.00;;;;;;5059309;28;20218;-70
2022/01/17 09:59:41;;;;;;;2.95;2.65;;;13.00;80.90;;;;;;5060036;28;20597;-73
2022/01/17 10:02:11;;;;;;;5.38;3.17;;;12.40;83.80;;;;;;5063125;28;20202;-70
2022/01/17 10:04:38;;;;;;;3.58;2.72;;;13.50;84.60;;;;;;5061588;28;20628;-71
2022/01/17 10:07:07;;;;;;;3.05;2.85;;;14.60;82.80;;;;;;5058186;28;20230;-73
2022/01/17 10:09:35;;;;;;;2.53;2.33;;;15.30;81.00;;;;;;5057417;28;21010;-72
2022/01/17 10:12:06;;;;;;;2.67;2.47;;;15.80;80.00;;;;;;5060855;28;20205;-71
2022/01/17 10:14:36;;;;;;;3.88;2.60;;;15.80;80.00;;;;;;5061701;28;20226;-70
2022/01/17 10:17:06;;;;;;;2.55;2.35;;;15.50;79.60;;;;;;5058049;28;20218;-70
2022/01/17 10:19:34;;;;;;;2.78;2.53;;;15.30;79.20;;;;;;5059191;28;20735;-70
2022/01/17 10:22:08;;;;;;;2.42;2.20;;;15.00;80.40;;;;;;5060374;28;20289;-71
2022/01/17 10:24:43;;;;;;;3.45;2.38;;;14.90;79.80;;;;;;5060458;28;20228;-70
2022/01/17 10:27:28;;;;;;;2.47;2.13;;;14.60;81.40;;;;;;5060779;28;20232;-70
2022/01/17 10:35:38;;;;;;;4.95;2.53;;;14.80;81.40;;;;;;5055877;28;20220;-70
2022/01/17 10:38:07;;;;;;;3.33;2.75;;;14.40;83.50;;;;;;5062224;28;20198;-70
2022/01/17 10:40:37;;;;;;;2.55;2.20;;;14.30;85.00;;;;;;5065913;28;20226;-70
2022/01/17 10:43:05;;;;;;;2.55;2.35;;;14.50;85.60;;;;;;5066490;28;20278;-71
2022/01/17 10:45:41;;;;;;;2.47;2.28;;;14.70;86.50;;;;;;5060438;28;20668;-70
2022/01/17 10:48:09;;;;;;;4.32;2.72;;;14.80;86.00;;;;;;5061065;28;20593;-70
2022/01/17 10:50:39;;;;;;;3.72;2.80;;;14.90;86.00;;;;;;5054614;28;20222;-70
2022/01/17 10:53:08;;;;;;;5.80;2.95;;;15.10;87.10;;;;;;5065545;28;20202;-71
2022/01/17 10:55:37;;;;;;;9.35;3.50;;;15.20;86.90;;;;;;5062714;28;20225;-70
2022/01/17 10:58:07;;;;;;;5.20;2.97;;;15.10;85.80;;;;;;5060867;28;20203;-70
2022/01/17 11:00:36;;;;;;;3.28;2.97;;;14.80;87.70;;;;;;5059688;28;20234;-70
2022/01/17 11:03:05;;;;;;;4.10;3.72;;;14.80;89.50;;;;;;5062341;28;20661;-70
2022/01/17 11:05:33;;;;;;;5.53;3.50;;;14.70;88.00;;;;;;5067316;28;20222;-70
2022/01/17 11:08:02;;;;;;;4.00;3.65;;;14.40;88.10;;;;;;5060883;28;20202;-70
2022/01/17 11:10:31;;;;;;;5.68;4.00;;;13.90;89.30;;;;;;5059661;28;20624;-71
2022/01/17 11:13:01;;;;;;;4.80;4.20;;;14.10;90.90;;;;;;5062919;28;20226;-70
2022/01/17 11:15:32;;;;;;;5.40;3.85;;;14.40;90.70;;;;;;5060127;28;20248;-71
2022/01/17 11:18:03;;;;;;;4.25;3.60;;;14.80;90.80;;;;;;5065315;28;20320;-70
2022/01/17 11:20:30;;;;;;;4.57;4.18;;;14.90;90.00;;;;;;5063354;28;20753;-71
2022/01/17 11:23:00;;;;;;;5.63;5.03;;;15.00;90.60;;;;;;5061973;28;20195;-70
2022/01/17 11:25:31;;;;;;;5.82;4.53;;;14.90;90.20;;;;;;5063190;28;20230;-70
2022/01/17 11:27:59;;;;;;;17.45;6.68;;;14.70;90.50;;;;;;5059449;28;20655;-71
2022/01/17 11:30:27;;;;;;;41.97;14.30;;;14.60;90.00;;;;;;5061373;28;20312;-71
2022/01/17 11:32:56;;;;;;;24.10;9.77;;;14.80;91.70;;;;;;5060467;28;20256;-71
2022/01/17 11:35:25;;;;;;;34.13;10.18;;;14.80;90.30;;;;;;5060972;28;20241;-72
2022/01/17 11:37:55;;;;;;;20.55;7.75;;;14.70;89.90;;;;;;5061382;28;20191;-71
2022/01/17 11:40:27;;;;;;;10.18;6.00;;;14.80;90.40;;;;;;5053721;28;20221;-70
2022/01/17 11:42:58;;;;;;;30.75;8.38;;;14.50;87.20;;;;;;5055611;28;20248;-71
2022/01/17 11:45:37;;;;;;;7.10;4.50;;;14.30;90.60;;;;;;5055871;28;20287;-71
2022/01/17 11:48:07;;;;;;;10.35;5.00;;;14.10;88.40;;;;;;5061994;28;20874;-70
2022/01/17 11:50:44;;;;;;;6.95;4.32;;;14.00;90.20;;;;;;5056691;28;20627;-70
2022/01/17 11:53:48;;;;;;;6.85;4.20;;;13.90;89.00;;;;;;5056358;28;20206;-71
2022/01/17 11:56:34;;;;;;;9.82;4.65;;;13.80;87.80;;;;;;5058682;28;20226;-71
2022/01/17 11:59:37;;;;;;;6.85;4.28;;;13.70;91.00;;;;;;5060810;28;20202;-71
2022/01/17 12:02:29;;;;;;;9.07;4.65;;;14.00;90.10;;;;;;5058710;28;20859;-71
2022/01/17 12:05:44;;;;;;;7.28;4.60;;;14.30;90.40;;;;;;5065298;28;20258;-72
2022/01/17 12:08:20;;;;;;;11.27;4.55;;;14.60;90.60;;;;;;5058220;28;20199;-73
2022/01/17 12:10:58;;;;;;;5.63;3.80;;;14.90;90.10;;;;;;5051301;28;20240;-71
2022/01/17 12:13:37;;;;;;;6.55;3.45;;;14.90;88.50;;;;;;5065048;28;20226;-71
2022/01/17 12:16:11;;;;;;;4.15;3.72;;;14.80;87.90;;;;;;5059849;28;20226;-71
2022/01/17 12:18:39;;;;;;;4.00;3.70;;;14.50;87.90;;;;;;5059840;28;20285;-70
2022/01/17 12:21:24;;;;;;;5.45;4.10;;;14.40;88.70;;;;;;5058375;28;20739;-72
2022/01/17 12:23:51;;;;;;;4.28;3.88;;;14.40;87.10;;;;;;5056220;28;20301;-71
2022/01/17 12:26:26;;;;;;;4.35;3.58;;;14.50;87.70;;;;;;5060690;28;20348;-71
2022/01/17 12:28:55;;;;;;;4.97;4.47;;;14.60;87.30;;;;;;5060899;28;20681;-70
2022/01/17 12:31:38;;;;;;;4.05;3.65;;;14.60;87.30;;;;;;5061421;28;20229;-70
2022/01/17 12:34:17;;;;;;;4.75;3.72;;;14.60;86.90;;;;;;5062505;28;20190;-71
2022/01/17 12:36:46;;;;;;;4.20;3.78;;;14.80;87.10;;;;;;5061800;28;20244;-70
2022/01/17 12:39:17;;;;;;;4.70;3.38;;;15.00;87.50;;;;;;5061556;28;20229;-71
2022/01/17 12:41:45;;;;;;;4.00;3.60;;;15.00;86.40;;;;;;5056482;28;20191;-70
2022/01/17 12:44:20;;;;;;;6.53;3.97;;;15.10;86.40;;;;;;5062142;28;20640;-71
2022/01/17 12:46:53;;;;;;;3.42;3.13;;;15.20;86.20;;;;;;5063760;28;20311;-71
2022/01/17 12:49:21;;;;;;;3.95;3.55;;;15.10;85.90;;;;;;5061621;28;21721;-71
2022/01/17 12:51:50;;;;;;;3.97;3.35;;;15.00;86.80;;;;;;5058560;28;20199;-71
2022/01/17 12:54:19;;;;;;;3.67;3.38;;;15.20;86.30;;;;;;5057116;28;20205;-71
2022/01/17 12:56:48;;;;;;;3.65;3.35;;;15.30;85.90;;;;;;5058841;28;20226;-71
2022/01/17 12:59:17;;;;;;;3.45;3.15;;;15.20;85.20;;;;;;5060192;28;20734;-71
2022/01/17 13:01:46;;;;;;;3.47;2.97;;;14.90;85.20;;;;;;5055600;28;20191;-71
2022/01/17 13:04:16;;;;;;;3.67;3.20;;;14.80;86.40;;;;;;5056832;28;20631;-71
2022/01/17 13:06:45;;;;;;;3.97;3.63;;;14.80;85.90;;;;;;5060832;28;20230;-71
2022/01/17 13:09:14;;;;;;;3.85;3.25;;;14.80;85.40;;;;;;5062846;28;20226;-72
2022/01/17 13:11:42;;;;;;;3.42;2.65;;;14.90;85.80;;;;;;5059315;28;20194;-71
2022/01/17 13:14:13;;;;;;;3.35;3.05;;;15.00;85.80;;;;;;5056114;28;20209;-71
2022/01/17 13:16:42;;;;;;;3.75;3.42;;;15.00;86.30;;;;;;5060158;28;20773;-71
2022/01/17 13:19:11;;;;;;;3.50;3.20;;;15.10;86.40;;;;;;5057400;28;20574;-71